• Join FlightAware (Why Join?)
  • Login
  • US Flag 
03:24PM EST


 

Airport Tracker/Info


-or-


 

Live Flight TrackerFlight Track Log ✈ KAL1333 ✈ 14-Jan-2014 ✈ RKSS / GMP - RKJY / RSU

Flight Track Log - Related Links

Times and Time Zones

All times are in EST time to prevent confusion due to time zone crossing. See the KAL1333 flight status page for this flight to view local times or setup timezone preferences in your user account.

Time Position Orientation Groundspeed Altitude Reporting Facility
EST Latitude Longitude Course Direction KTS MPH feet Rate Location/Type
08:32PM 37.4733 126.8173 166° South  Level Estimated
08:33PM 37.3882 126.8440 166° South  Level Estimated
08:34PM 37.3032 126.8706 166° South  Level Estimated
08:35PM 37.2153 126.8980 166° South  Level Estimated
08:36PM 37.1275 126.9253 166° South  Level Estimated
08:37PM 37.0397 126.9526 166° South  Level Estimated
08:38PM 36.9519 126.9798 166° South  Level Estimated
08:39PM 36.8640 127.0069 166° South  Level Estimated
08:40PM 36.7762 127.0340 166° South  Level Estimated
08:41PM 36.6883 127.0610 166° South  Level Estimated
08:42PM 36.6005 127.0880 166° South  Level Estimated
08:43PM 36.5126 127.1149 166° South  Level Estimated
08:44PM 36.4248 127.1417 166° South  Level Estimated
08:45PM 36.3369 127.1684 166° South  Level Estimated
08:46PM 36.2490 127.1952 166° South  Level Estimated
08:47PM 36.1611 127.2218 166° South  Level Estimated
08:48PM 36.0732 127.2484 166° South  Level Estimated
08:49PM 35.9853 127.2749 166° South  Level Estimated
08:50PM 35.8974 127.3014 166° South  Level Estimated
08:51PM 35.8095 127.3278 166° South  Level Estimated
08:52PM 35.7216 127.3542 166° South  Level Estimated
08:53PM 35.6337 127.3805 166° South  Level Estimated
08:54PM 35.5458 127.4067 166° South  Level Estimated
08:55PM 35.4579 127.4329 166° South  Level Estimated
08:56PM 35.3699 127.4591 166° South  Level Estimated
08:57PM 35.2820 127.4851 166° South  Level Estimated
08:58PM 35.1940 127.5111 166° South  Level Estimated
08:59PM 35.1061 127.5371 166° South  Level Estimated
09:00PM 35.0181 127.5630 166° South  Level Estimated
09:01PM 34.9301 127.5888 166° South  Level Estimated
09:02PM 34.8422 127.6146 166° South  Level Estimated
09:03PM 34.8398 127.6153 166° South  Level Estimated
09:04PM 34.8398 127.6153 180° South  Level Estimated
09:05PM 34.8398 127.6153 180° South  Level Estimated
09:06PM 34.8398 127.6153 180° South  Level Estimated
09:07PM 34.8398 127.6153 180° South  Level Estimated
09:08PM 34.8398 127.6153 180° South  Level Estimated
09:09PM 34.8398 127.6153 180° South  Level Estimated
09:10PM 34.8398 127.6153 180° South  Level Estimated
09:11PM 34.8398 127.6153 180° South  Level Estimated
09:12PM 34.8398 127.6153 180° South  Level Estimated
09:13PM 34.8398 127.6153 180° South  Level Estimated
09:14PM 34.8398 127.6153 180° South  Level Estimated